createdAt,value
2019-04-25T00:00:42.211Z,24.65
2019-04-25T00:03:10.326Z,24.64
2019-04-25T00:05:37.328Z,24.60
2019-04-25T00:08:04.690Z,24.60
2019-04-25T00:10:31.884Z,24.60
2019-04-25T00:12:59.001Z,24.58
2019-04-25T00:15:26.084Z,24.56
2019-04-25T00:17:53.080Z,24.54
2019-04-25T00:20:21.376Z,24.54
2019-04-25T00:23:02.064Z,24.53
2019-04-25T00:25:52.793Z,24.51
2019-04-25T00:28:19.800Z,24.52
2019-04-25T00:30:46.795Z,24.48
2019-04-25T00:33:13.774Z,24.47
2019-04-25T00:35:43.237Z,24.47
2019-04-25T00:38:09.644Z,24.46
2019-04-25T00:40:36.627Z,24.45
2019-04-25T00:43:03.608Z,24.44
2019-04-25T00:45:31.721Z,24.44
2019-04-25T00:47:58.906Z,24.40
2019-04-25T00:50:26.565Z,24.37
2019-04-25T00:52:53.710Z,24.38
2019-04-25T00:55:28.626Z,24.38
2019-04-25T00:57:55.054Z,24.39
2019-04-25T01:00:41.599Z,24.36
2019-04-25T01:03:13.743Z,24.32
2019-04-25T01:05:42.390Z,24.32
2019-04-25T01:08:09.861Z,24.30
2019-04-25T01:10:38.217Z,24.29
2019-04-25T01:13:06.240Z,24.28
2019-04-25T01:15:33.569Z,24.26
2019-04-25T01:18:01.298Z,24.26
2019-04-25T01:20:30.751Z,24.25
2019-04-25T01:23:00.859Z,24.25
2019-04-25T01:25:40.306Z,24.25
2019-04-25T01:28:00.389Z,24.25
2019-04-25T01:30:29.671Z,24.23
2019-04-25T01:32:58.901Z,24.22
2019-04-25T01:36:04.943Z,24.19
2019-04-25T01:38:43.294Z,24.20
2019-04-25T01:41:23.860Z,24.18
2019-04-25T01:44:00.323Z,24.16
2019-04-25T01:46:29.003Z,24.20
2019-04-25T01:48:58.712Z,24.16
2019-04-25T01:51:27.232Z,24.17
2019-04-25T01:53:55.760Z,24.16
2019-04-25T01:56:24.753Z,24.16
2019-04-25T01:58:55.042Z,24.14
2019-04-25T02:01:25.792Z,24.13
2019-04-25T02:03:55.469Z,24.11
2019-04-25T02:06:24.783Z,24.10
2019-04-25T02:08:55.247Z,24.09
2019-04-25T02:11:31.476Z,24.09
2019-04-25T02:14:00.156Z,24.07
2019-04-25T02:16:27.389Z,24.05
2019-04-25T02:18:56.131Z,24.01
2019-04-25T02:21:23.662Z,24.04
2019-04-25T02:23:50.664Z,24.03
2019-04-25T02:26:18.643Z,24.01
2019-04-25T02:28:45.829Z,24.01
2019-04-25T02:31:17.577Z,23.99
2019-04-25T02:33:44.102Z,24.00
2019-04-25T02:36:10.869Z,24.01
2019-04-25T02:38:38.102Z,23.99
2019-04-25T02:41:08.295Z,23.96
2019-04-25T02:43:35.375Z,23.96
2019-04-25T02:46:37.172Z,23.99
2019-04-25T02:49:29.261Z,23.96
2019-04-25T02:52:08.471Z,23.93
2019-04-25T02:54:36.037Z,23.93
2019-04-25T02:57:06.561Z,23.92
2019-04-25T02:59:34.569Z,23.92
2019-04-25T03:02:04.845Z,23.90
2019-04-25T03:04:33.918Z,23.90
2019-04-25T03:07:02.684Z,23.91
2019-04-25T03:09:30.166Z,23.90
2019-04-25T03:11:58.886Z,23.87
2019-04-25T03:14:26.847Z,23.86
2019-04-25T03:16:54.450Z,23.87
2019-04-25T03:19:41.239Z,23.86
2019-04-25T03:22:11.829Z,23.86
2019-04-25T03:24:39.428Z,23.86
2019-04-25T03:27:07.333Z,23.86
2019-04-25T03:29:34.499Z,23.84
2019-04-25T03:32:02.858Z,23.84
2019-04-25T03:34:31.163Z,23.84
2019-04-25T03:36:58.184Z,23.81
2019-04-25T03:39:27.067Z,23.82
2019-04-25T03:41:54.292Z,23.82
2019-04-25T03:44:21.976Z,23.81
2019-04-25T03:46:51.251Z,23.80
2019-04-25T03:49:18.770Z,23.81
2019-04-25T03:51:46.396Z,23.81
2019-04-25T03:54:14.265Z,23.78
2019-04-25T03:56:51.932Z,23.57
2019-04-25T03:59:11.410Z,23.74
2019-04-25T04:01:38.506Z,23.75
2019-04-25T04:04:06.734Z,23.74
2019-04-25T04:06:34.227Z,23.75
2019-04-25T04:09:01.239Z,23.73
2019-04-25T04:11:28.239Z,23.71
2019-04-25T04:13:55.619Z,23.71
2019-04-25T04:16:26.537Z,23.68
2019-04-25T04:18:55.598Z,23.66
2019-04-25T04:21:45.443Z,23.62
2019-04-25T04:24:20.397Z,23.64
2019-04-25T04:27:08.911Z,23.62
2019-04-25T04:29:35.668Z,23.62
2019-04-25T04:32:03.096Z,23.64
2019-04-25T04:34:30.954Z,23.65
2019-04-25T04:36:57.955Z,23.66
2019-04-25T04:39:25.439Z,23.67
2019-04-25T04:41:53.560Z,23.66
2019-04-25T04:44:24.006Z,23.67
2019-04-25T04:46:53.754Z,23.67
2019-04-25T04:49:21.088Z,23.69
2019-04-25T04:51:48.123Z,23.68
2019-04-25T04:54:15.516Z,23.72
2019-04-25T04:56:43.848Z,23.71
2019-04-25T04:59:11.001Z,23.68
2019-04-25T05:01:56.025Z,23.66
2019-04-25T05:04:27.781Z,23.67
2019-04-25T05:07:21.609Z,23.67
2019-04-25T05:09:49.261Z,23.68
2019-04-25T05:12:17.439Z,23.68
2019-04-25T05:14:45.787Z,23.70
2019-04-25T05:17:14.965Z,23.73
2019-04-25T05:19:43.434Z,23.75
2019-04-25T05:22:13.006Z,23.72
2019-04-25T05:24:40.323Z,23.74
2019-04-25T05:27:07.332Z,23.75
2019-04-25T05:29:34.328Z,23.76
2019-04-25T05:32:01.731Z,23.77
2019-04-25T05:34:28.776Z,23.79
2019-04-25T05:36:56.378Z,23.78
2019-04-25T05:39:24.088Z,23.81
2019-04-25T05:42:10.926Z,23.82
2019-04-25T05:44:37.999Z,23.83
2019-04-25T05:47:05.025Z,23.85
2019-04-25T05:49:32.215Z,23.87
2019-04-25T05:52:00.408Z,23.88
2019-04-25T05:54:27.440Z,23.92
2019-04-25T05:56:54.757Z,23.94
2019-04-25T05:59:21.968Z,23.96
2019-04-25T06:01:49.571Z,23.98
2019-04-25T06:04:17.807Z,24.01
2019-04-25T06:06:46.020Z,24.04
2019-04-25T06:09:35.975Z,24.06
2019-04-25T06:12:23.710Z,24.09
2019-04-25T06:14:52.954Z,24.11
2019-04-25T06:17:29.013Z,24.17
2019-04-25T06:19:56.347Z,24.17
2019-04-25T06:22:33.209Z,24.24
2019-04-25T06:25:12.441Z,24.27
2019-04-25T06:27:40.236Z,24.32
2019-04-25T06:30:22.535Z,24.38
2019-04-25T06:32:50.927Z,24.41
2019-04-25T06:35:18.480Z,24.45
2019-04-25T06:37:45.487Z,24.48
2019-04-25T06:40:13.708Z,24.53
2019-04-25T06:42:41.342Z,24.56
2019-04-25T06:45:49.997Z,24.61
2019-04-25T06:48:43.373Z,24.64
2019-04-25T06:51:13.456Z,24.69
2019-04-25T06:53:41.483Z,24.74
2019-04-25T06:56:08.503Z,24.76
2019-04-25T06:58:36.042Z,24.78
2019-04-25T07:01:03.439Z,24.82
2019-04-25T07:03:31.516Z,24.83
2019-04-25T07:05:58.877Z,24.88
2019-04-25T07:08:27.777Z,24.89
2019-04-25T07:10:55.425Z,24.92
2019-04-25T07:13:24.656Z,24.97
2019-04-25T07:15:51.503Z,25.01
2019-04-25T07:18:19.056Z,25.03
2019-04-25T07:20:46.178Z,25.08
2019-04-25T07:23:13.855Z,25.11
2019-04-25T07:25:46.433Z,25.13
2019-04-25T07:28:36.855Z,25.19
2019-04-25T07:31:24.250Z,25.22
2019-04-25T07:33:59.605Z,25.27
2019-04-25T07:36:28.181Z,25.28
2019-04-25T07:39:07.535Z,25.32
2019-04-25T07:41:25.919Z,25.36
2019-04-25T07:43:53.612Z,25.40
2019-04-25T07:46:20.653Z,25.41
2019-04-25T07:48:47.988Z,25.45
2019-04-25T07:51:16.633Z,25.47
2019-04-25T07:53:43.810Z,25.50
2019-04-25T07:56:12.269Z,25.54
2019-04-25T07:58:49.358Z,25.58
2019-04-25T08:01:09.888Z,25.62
2019-04-25T08:03:37.451Z,25.65
2019-04-25T08:06:05.235Z,25.69
2019-04-25T08:08:33.950Z,25.67
2019-04-25T08:11:04.274Z,25.66
2019-04-25T08:13:46.939Z,25.67
2019-04-25T08:16:15.758Z,25.70
2019-04-25T08:18:43.371Z,25.73
2019-04-25T08:21:11.039Z,25.78
2019-04-25T08:23:39.024Z,25.84
2019-04-25T08:26:06.362Z,25.84
2019-04-25T08:28:34.491Z,25.87
2019-04-25T08:31:03.572Z,25.93
2019-04-25T08:33:30.683Z,25.95
2019-04-25T08:36:08.218Z,25.99
2019-04-25T08:38:27.571Z,26.02
2019-04-25T08:40:55.788Z,26.04
2019-04-25T08:43:24.343Z,26.05
2019-04-25T08:45:51.466Z,26.06
2019-04-25T08:48:18.524Z,26.08
2019-04-25T08:50:57.714Z,26.08
2019-04-25T08:53:29.161Z,26.08
2019-04-25T08:56:07.266Z,26.11
2019-04-25T08:59:05.498Z,26.15
2019-04-25T09:01:46.960Z,26.13
2019-04-25T09:04:37.999Z,26.14
2019-04-25T09:07:05.477Z,26.15
2019-04-25T09:09:35.369Z,26.14
2019-04-25T09:12:04.121Z,26.14
2019-04-25T09:14:31.375Z,26.16
2019-04-25T09:16:58.722Z,26.16
2019-04-25T09:19:25.744Z,26.17
2019-04-25T09:21:53.342Z,26.17
2019-04-25T09:24:20.519Z,26.21
2019-04-25T09:26:47.637Z,26.22
2019-04-25T09:29:19.397Z,26.23
2019-04-25T09:31:45.124Z,26.26
2019-04-25T09:34:14.047Z,26.27
2019-04-25T09:36:43.575Z,26.28
2019-04-25T09:39:23.719Z,26.30
2019-04-25T09:41:51.100Z,26.32
2019-04-25T09:44:24.223Z,26.36
2019-04-25T09:46:51.433Z,26.37
2019-04-25T09:49:28.747Z,26.38
2019-04-25T09:52:17.407Z,26.40
2019-04-25T09:54:56.183Z,26.42
2019-04-25T09:57:34.312Z,26.42
2019-04-25T10:00:01.334Z,26.43
2019-04-25T10:02:28.344Z,26.46
2019-04-25T10:04:55.349Z,26.48
2019-04-25T10:07:22.483Z,26.51
2019-04-25T10:09:50.167Z,26.53
2019-04-25T10:12:17.457Z,26.57
2019-04-25T10:15:04.692Z,26.59
2019-04-25T10:17:31.726Z,26.61
2019-04-25T10:19:58.761Z,26.61
2019-04-25T10:22:25.806Z,26.64
2019-04-25T10:25:00.221Z,26.65
2019-04-25T10:27:22.117Z,26.67
2019-04-25T10:29:53.707Z,26.68
2019-04-25T10:32:20.303Z,26.69
2019-04-25T10:34:47.365Z,26.72
2019-04-25T10:37:14.712Z,26.74
2019-04-25T10:39:43.499Z,26.75
2019-04-25T10:42:10.767Z,26.79
2019-04-25T10:44:38.091Z,26.80
2019-04-25T10:47:05.186Z,26.82
2019-04-25T10:49:34.376Z,26.84
2019-04-25T10:52:01.945Z,26.85
2019-04-25T10:54:29.288Z,26.88
2019-04-25T10:56:56.562Z,26.90
2019-04-25T10:59:23.902Z,26.90
2019-04-25T11:01:51.088Z,26.92
2019-04-25T11:04:24.374Z,26.62
2019-04-25T11:06:51.751Z,26.96
2019-04-25T11:09:25.899Z,26.98
2019-04-25T11:11:53.618Z,26.98
2019-04-25T11:14:20.744Z,26.99
2019-04-25T11:16:48.446Z,27.01
2019-04-25T11:19:15.487Z,27.05
2019-04-25T11:21:45.158Z,27.05
2019-04-25T11:24:14.216Z,27.08
2019-04-25T11:26:41.578Z,27.10
2019-04-25T11:29:08.831Z,27.11
2019-04-25T11:31:40.993Z,27.12
2019-04-25T11:34:08.750Z,27.14
2019-04-25T11:36:35.768Z,27.14
2019-04-25T11:39:33.845Z,27.17
2019-04-25T11:42:05.667Z,27.18
2019-04-25T11:44:33.308Z,27.17
2019-04-25T11:47:03.822Z,27.18
2019-04-25T11:49:31.317Z,27.20
2019-04-25T11:51:58.338Z,27.22
2019-04-25T11:54:25.380Z,27.25
2019-04-25T11:56:54.722Z,27.24
2019-04-25T11:59:23.519Z,27.25
2019-04-25T12:01:52.253Z,27.29
2019-04-25T12:04:19.371Z,27.31
2019-04-25T12:06:47.603Z,27.33
2019-04-25T12:09:14.660Z,27.36
2019-04-25T12:11:43.530Z,27.38
2019-04-25T12:14:10.636Z,27.40
2019-04-25T12:16:38.839Z,27.41
2019-04-25T12:19:06.551Z,27.41
2019-04-25T12:21:34.032Z,27.43
2019-04-25T12:24:05.442Z,27.44
2019-04-25T12:26:31.122Z,27.46
2019-04-25T12:28:58.834Z,27.47
2019-04-25T12:31:25.867Z,27.46
2019-04-25T12:33:55.204Z,27.47
2019-04-25T12:36:23.968Z,27.49
2019-04-25T12:38:51.170Z,27.49
2019-04-25T12:41:18.255Z,27.52
2019-04-25T12:43:54.583Z,27.54
2019-04-25T12:46:35.110Z,27.58
2019-04-25T12:49:02.448Z,27.61
2019-04-25T12:51:29.489Z,27.64
2019-04-25T12:53:56.540Z,27.64
2019-04-25T12:56:24.755Z,27.64
2019-04-25T12:58:53.830Z,27.66
2019-04-25T13:01:23.107Z,27.73
2019-04-25T13:03:51.339Z,27.72
2019-04-25T13:06:18.370Z,27.71
2019-04-25T13:08:45.455Z,27.73
2019-04-25T13:11:13.934Z,27.72
2019-04-25T13:13:41.288Z,27.74
2019-04-25T13:16:08.634Z,27.83
2019-04-25T13:18:36.101Z,27.78
2019-04-25T13:21:03.607Z,27.78
2019-04-25T13:23:32.034Z,27.77
2019-04-25T13:25:59.507Z,27.76
2019-04-25T13:29:01.355Z,27.77
2019-04-25T13:31:46.735Z,27.79
2019-04-25T13:34:35.217Z,27.79
2019-04-25T13:36:51.414Z,27.83
2019-04-25T13:39:19.276Z,27.94
2019-04-25T13:41:46.817Z,27.98
2019-04-25T13:44:14.278Z,28.00
2019-04-25T13:46:43.255Z,28.03
2019-04-25T13:49:11.126Z,28.07
2019-04-25T13:51:38.549Z,28.16
2019-04-25T13:54:06.482Z,28.20
2019-04-25T13:56:34.869Z,28.20
2019-04-25T13:59:04.228Z,28.25
2019-04-25T14:01:31.823Z,27.95
2019-04-25T14:03:59.062Z,28.25
2019-04-25T14:06:26.264Z,28.27
2019-04-25T14:08:53.630Z,28.30
2019-04-25T14:11:21.497Z,28.33
2019-04-25T14:13:49.275Z,28.37
2019-04-25T14:16:25.336Z,28.39
2019-04-25T14:19:15.627Z,28.36
2019-04-25T14:21:43.434Z,28.35
2019-04-25T14:24:19.923Z,28.31
2019-04-25T14:26:39.524Z,28.33
2019-04-25T14:29:06.782Z,28.31
2019-04-25T14:31:45.496Z,28.31
2019-04-25T14:34:04.991Z,28.26
2019-04-25T14:36:33.234Z,28.28
2019-04-25T14:39:00.717Z,28.30
2019-04-25T14:41:28.143Z,28.25
2019-04-25T14:43:55.663Z,28.24
2019-04-25T14:46:22.765Z,28.23
2019-04-25T14:48:50.340Z,28.19
2019-04-25T14:51:17.521Z,28.18
2019-04-25T14:53:45.420Z,28.14
2019-04-25T14:56:29.077Z,28.14
2019-04-25T14:58:56.467Z,28.15
2019-04-25T15:01:24.013Z,28.17
2019-04-25T15:03:52.058Z,28.14
2019-04-25T15:06:20.022Z,28.17
2019-04-25T15:08:47.970Z,28.20
2019-04-25T15:11:15.548Z,28.20
2019-04-25T15:13:42.855Z,28.22
2019-04-25T15:16:09.866Z,28.29
2019-04-25T15:18:46.377Z,28.31
2019-04-25T15:21:06.396Z,28.33
2019-04-25T15:23:34.424Z,28.35
2019-04-25T15:26:01.744Z,28.33
2019-04-25T15:28:29.711Z,28.32
2019-04-25T15:30:57.023Z,28.27
2019-04-25T15:33:25.188Z,28.24
2019-04-25T15:36:03.527Z,28.26
2019-04-25T15:38:37.326Z,28.22
2019-04-25T15:41:13.857Z,28.20
2019-04-25T15:44:01.140Z,28.20
2019-04-25T15:46:32.292Z,28.19
2019-04-25T15:49:00.799Z,28.19
2019-04-25T15:51:28.270Z,28.14
2019-04-25T15:53:55.654Z,28.13
2019-04-25T15:56:23.523Z,28.16
2019-04-25T15:58:51.184Z,28.22
2019-04-25T16:01:18.476Z,28.20
2019-04-25T16:03:45.537Z,28.16
2019-04-25T16:06:13.205Z,28.17
2019-04-25T16:08:40.271Z,28.18
2019-04-25T16:11:07.321Z,28.16
2019-04-25T16:13:34.485Z,28.14
2019-04-25T16:16:01.604Z,28.16
2019-04-25T16:18:30.461Z,28.15
2019-04-25T16:20:57.773Z,28.18
2019-04-25T16:23:24.799Z,28.16
2019-04-25T16:25:52.382Z,28.15
2019-04-25T16:28:19.642Z,28.13
2019-04-25T16:30:47.044Z,28.14
2019-04-25T16:33:14.646Z,28.14
2019-04-25T16:35:42.769Z,28.14
2019-04-25T16:38:10.888Z,28.18
2019-04-25T16:40:37.927Z,28.18
2019-04-25T16:43:08.349Z,28.16
2019-04-25T16:45:38.058Z,28.16
2019-04-25T16:48:05.095Z,28.14
2019-04-25T16:50:34.178Z,28.15
2019-04-25T16:53:01.977Z,28.14
2019-04-25T16:55:30.848Z,28.09
2019-04-25T16:57:58.975Z,28.06
2019-04-25T17:00:38.574Z,28.07
2019-04-25T17:03:05.601Z,28.02
2019-04-25T17:05:34.600Z,28.04
2019-04-25T17:08:01.925Z,28.00
2019-04-25T17:10:30.301Z,27.97
2019-04-25T17:12:58.840Z,28.00
2019-04-25T17:15:50.039Z,27.98
2019-04-25T17:18:20.504Z,28.01
2019-04-25T17:20:57.344Z,27.98
2019-04-25T17:23:24.780Z,27.96
2019-04-25T17:25:52.147Z,27.86
2019-04-25T17:28:20.629Z,27.75
2019-04-25T17:30:51.019Z,27.69
2019-04-25T17:33:36.527Z,27.70
2019-04-25T17:36:23.554Z,27.67
2019-04-25T17:38:54.120Z,27.62
2019-04-25T17:41:21.440Z,27.61
2019-04-25T17:43:49.066Z,27.57
2019-04-25T17:46:18.274Z,27.59
2019-04-25T17:48:45.562Z,27.61
2019-04-25T17:51:12.623Z,27.62
2019-04-25T17:53:39.982Z,27.60
2019-04-25T17:56:07.325Z,27.56
2019-04-25T17:58:35.266Z,27.54
2019-04-25T18:01:03.174Z,27.59
2019-04-25T18:03:30.798Z,27.49
2019-04-25T18:05:58.258Z,27.47
2019-04-25T18:08:25.809Z,27.50
2019-04-25T18:10:53.083Z,27.41
2019-04-25T18:13:21.259Z,27.33
2019-04-25T18:16:17.532Z,27.30
2019-04-25T18:18:59.093Z,27.32
2019-04-25T18:21:26.502Z,27.33
2019-04-25T18:24:12.290Z,27.33
2019-04-25T18:26:59.312Z,27.27
2019-04-25T18:29:26.597Z,27.24
2019-04-25T18:31:54.454Z,27.14
2019-04-25T18:34:28.868Z,27.07
2019-04-25T18:37:10.495Z,26.96
2019-04-25T18:39:46.221Z,26.84
2019-04-25T18:42:31.991Z,26.74
2019-04-25T18:44:58.988Z,26.64
2019-04-25T18:47:26.265Z,26.56
2019-04-25T18:49:53.283Z,26.54
2019-04-25T18:52:49.113Z,26.51
2019-04-25T18:55:23.119Z,26.47
2019-04-25T18:58:02.699Z,26.42
2019-04-25T19:00:39.200Z,26.38
2019-04-25T19:03:30.707Z,26.36
2019-04-25T19:06:00.499Z,26.32
2019-04-25T19:08:28.170Z,26.27
2019-04-25T19:10:55.531Z,26.28
2019-04-25T19:13:22.698Z,26.25
2019-04-25T19:15:51.506Z,26.21
2019-04-25T19:18:19.609Z,26.14
2019-04-25T19:20:48.062Z,26.12
2019-04-25T19:23:15.736Z,26.06
2019-04-25T19:25:43.692Z,26.04
2019-04-25T19:28:10.989Z,26.04
2019-04-25T19:30:38.652Z,26.02
2019-04-25T19:33:07.483Z,26.00
2019-04-25T19:35:34.777Z,25.97
2019-04-25T19:38:02.148Z,25.95
2019-04-25T19:40:49.060Z,25.95
2019-04-25T19:43:35.194Z,25.91
2019-04-25T19:46:02.376Z,25.85
2019-04-25T19:48:30.351Z,25.81
2019-04-25T19:50:57.384Z,25.78
2019-04-25T19:53:24.415Z,25.76
2019-04-25T19:55:52.877Z,25.74
2019-04-25T19:58:20.631Z,25.71
2019-04-25T20:00:49.072Z,25.70
2019-04-25T20:03:54.965Z,25.66
2019-04-25T20:06:45.746Z,25.66
2019-04-25T20:09:25.979Z,25.63
2019-04-25T20:11:53.629Z,25.61
2019-04-25T20:14:20.998Z,25.58
2019-04-25T20:16:49.625Z,25.56
2019-04-25T20:19:16.848Z,25.57
2019-04-25T20:21:44.594Z,25.55
2019-04-25T20:24:13.030Z,25.54
2019-04-25T20:26:40.138Z,25.53
2019-04-25T20:29:08.208Z,25.54
2019-04-25T20:31:35.878Z,25.56
2019-04-25T20:34:06.202Z,25.57
2019-04-25T20:36:32.419Z,25.61
2019-04-25T20:39:01.905Z,25.64
2019-04-25T20:41:28.932Z,25.64
2019-04-25T20:43:57.018Z,25.63
2019-04-25T20:46:24.111Z,25.68
2019-04-25T20:48:52.290Z,25.72
2019-04-25T20:51:20.513Z,25.73
2019-04-25T20:53:48.819Z,25.75
2019-04-25T20:56:17.101Z,25.78
2019-04-25T20:58:44.241Z,25.79
2019-04-25T21:01:11.529Z,25.79
2019-04-25T21:03:39.217Z,25.80
2019-04-25T21:06:13.441Z,25.81
2019-04-25T21:08:40.513Z,25.82
2019-04-25T21:11:07.697Z,25.81
2019-04-25T21:13:43.377Z,25.83
2019-04-25T21:16:46.082Z,25.83
2019-04-25T21:19:16.196Z,25.85
2019-04-25T21:21:43.232Z,25.88
2019-04-25T21:24:10.503Z,25.89
2019-04-25T21:26:37.629Z,25.91
2019-04-25T21:29:04.949Z,25.92
2019-04-25T21:31:32.977Z,25.92
2019-04-25T21:34:00.015Z,25.92
2019-04-25T21:36:27.984Z,25.92
2019-04-25T21:38:55.410Z,25.91
2019-04-25T21:41:57.899Z,25.84
2019-04-25T21:44:25.578Z,25.84
2019-04-25T21:46:53.672Z,25.81
2019-04-25T21:49:22.043Z,25.82
2019-04-25T21:51:49.601Z,25.81
2019-04-25T21:54:16.902Z,25.79
2019-04-25T21:56:44.325Z,25.76
2019-04-25T21:59:11.807Z,25.74
2019-04-25T22:01:39.933Z,25.71
2019-04-25T22:04:07.371Z,25.68
2019-04-25T22:06:35.035Z,25.66
2019-04-25T22:09:05.241Z,25.64
2019-04-25T22:11:32.484Z,25.60
2019-04-25T22:13:59.913Z,25.59
2019-04-25T22:16:27.583Z,25.56
2019-04-25T22:18:56.462Z,25.53
2019-04-25T22:21:24.075Z,25.51
2019-04-25T22:24:03.087Z,25.49
2019-04-25T22:26:20.205Z,25.48
2019-04-25T22:28:48.258Z,25.46
2019-04-25T22:31:20.129Z,25.45
2019-04-25T22:34:03.752Z,25.44
2019-04-25T22:36:31.902Z,25.41
2019-04-25T22:39:09.444Z,25.40
2019-04-25T22:41:37.181Z,25.40
2019-04-25T22:44:04.981Z,25.38
2019-04-25T22:46:33.173Z,25.34
2019-04-25T22:49:01.355Z,25.33
2019-04-25T22:51:29.074Z,25.30
2019-04-25T22:53:56.479Z,25.26
2019-04-25T22:56:23.494Z,25.25
2019-04-25T22:58:51.162Z,25.26
2019-04-25T23:01:41.536Z,25.24
2019-04-25T23:04:15.020Z,25.23
2019-04-25T23:06:43.157Z,25.22
2019-04-25T23:09:10.423Z,25.19
2019-04-25T23:11:38.069Z,25.19
2019-04-25T23:14:05.837Z,25.17
2019-04-25T23:16:34.924Z,25.15
2019-04-25T23:19:02.824Z,25.14
2019-04-25T23:21:30.545Z,25.15
2019-04-25T23:23:57.578Z,25.13
2019-04-25T23:26:44.271Z,25.11
2019-04-25T23:29:12.449Z,25.09
2019-04-25T23:31:39.900Z,25.06
2019-04-25T23:34:08.766Z,25.06
2019-04-25T23:36:37.000Z,25.04
2019-04-25T23:39:08.297Z,25.01
2019-04-25T23:41:37.617Z,24.99
2019-04-25T23:44:05.766Z,24.98
2019-04-25T23:46:34.469Z,24.99
2019-04-25T23:49:02.115Z,25.01
2019-04-25T23:51:30.019Z,24.98
2019-04-25T23:53:57.355Z,24.96
2019-04-25T23:56:24.382Z,24.95
2019-04-25T23:58:51.698Z,24.94
